createdAt,value
2023-03-08T00:01:12.487Z,15.80
2023-03-08T00:03:39.553Z,16.50
2023-03-08T00:06:07.305Z,16.13
2023-03-08T00:08:34.140Z,16.50
2023-03-08T00:11:04.211Z,18.00
2023-03-08T00:13:31.123Z,18.48
2023-03-08T00:16:05.201Z,17.60
2023-03-08T00:18:33.911Z,16.27
2023-03-08T00:21:01.891Z,16.17
2023-03-08T00:23:28.689Z,16.73
2023-03-08T00:25:55.659Z,16.35
2023-03-08T00:28:23.424Z,16.70
2023-03-08T00:30:59.214Z,15.95
2023-03-08T00:33:26.286Z,16.05
2023-03-08T00:36:07.020Z,15.90
2023-03-08T00:38:35.576Z,15.43
2023-03-08T00:41:02.864Z,16.42
2023-03-08T00:43:32.141Z,15.95
2023-03-08T00:45:59.047Z,16.65
2023-03-08T00:48:25.967Z,15.43
2023-03-08T00:50:52.948Z,16.33
2023-03-08T00:53:19.780Z,16.58
2023-03-08T00:55:57.374Z,15.98
2023-03-08T00:58:25.790Z,18.20
2023-03-08T01:00:52.687Z,18.45
2023-03-08T01:03:20.193Z,17.65
2023-03-08T01:05:50.033Z,16.15
2023-03-08T01:08:17.391Z,16.98
2023-03-08T01:10:56.841Z,16.77
2023-03-08T01:13:24.355Z,16.10
2023-03-08T01:15:51.200Z,16.33
2023-03-08T01:18:17.998Z,15.43
2023-03-08T01:20:44.835Z,15.18
2023-03-08T01:23:12.036Z,17.52
2023-03-08T01:25:38.876Z,16.08
2023-03-08T01:28:05.866Z,15.32
2023-03-08T01:30:32.664Z,15.88
2023-03-08T01:32:59.637Z,16.27
2023-03-08T01:35:26.617Z,15.35
2023-03-08T01:37:53.638Z,15.93
2023-03-08T01:40:21.504Z,15.52
2023-03-08T01:42:48.364Z,15.45
2023-03-08T01:46:13.973Z,14.77
2023-03-08T01:48:49.344Z,15.02
2023-03-08T01:51:25.725Z,16.30
2023-03-08T01:53:52.760Z,15.15
2023-03-08T01:56:20.113Z,13.77
2023-03-08T01:58:47.791Z,14.90
2023-03-08T02:01:15.101Z,15.07
2023-03-08T02:03:42.311Z,14.45
2023-03-08T02:06:09.346Z,14.73
2023-03-08T02:08:36.252Z,14.50
2023-03-08T02:11:03.105Z,15.10
2023-03-08T02:13:29.923Z,13.50
2023-03-08T02:15:57.578Z,14.70
2023-03-08T02:18:24.460Z,15.32
2023-03-08T02:20:51.338Z,13.88
2023-03-08T02:23:20.844Z,13.32
2023-03-08T02:25:56.560Z,14.30
2023-03-08T02:28:24.529Z,14.73
2023-03-08T02:30:52.957Z,12.93
2023-03-08T02:33:19.753Z,13.80
2023-03-08T02:35:46.619Z,14.05
2023-03-08T02:38:14.903Z,12.30
2023-03-08T02:40:41.773Z,13.35
2023-03-08T02:43:09.447Z,13.55
2023-03-08T02:45:39.790Z,14.35
2023-03-08T02:48:08.407Z,13.10
2023-03-08T02:50:36.620Z,12.52
2023-03-08T02:53:04.651Z,15.77
2023-03-08T02:55:36.126Z,12.18
2023-03-08T02:58:08.111Z,13.65
2023-03-08T03:00:34.991Z,14.00
2023-03-08T03:03:02.072Z,13.75
2023-03-08T03:05:29.016Z,14.70
2023-03-08T03:07:58.739Z,14.18
2023-03-08T03:10:27.429Z,14.32
2023-03-08T03:12:54.343Z,13.75
2023-03-08T03:15:25.159Z,13.48
2023-03-08T03:17:56.704Z,13.88
2023-03-08T03:20:23.596Z,14.20
2023-03-08T03:22:50.468Z,13.02
2023-03-08T03:25:19.543Z,14.70
2023-03-08T03:27:47.882Z,14.65
2023-03-08T03:30:16.108Z,15.95
2023-03-08T03:32:43.807Z,15.32
2023-03-08T03:35:11.559Z,14.32
2023-03-08T03:37:38.466Z,13.85
2023-03-08T03:40:06.517Z,12.70
2023-03-08T03:42:33.495Z,13.77
2023-03-08T03:45:06.788Z,14.52
2023-03-08T03:47:34.652Z,14.98
2023-03-08T03:50:05.280Z,14.32
2023-03-08T03:52:42.753Z,14.07
2023-03-08T03:55:09.984Z,14.75
2023-03-08T03:57:37.858Z,14.35
2023-03-08T04:00:06.090Z,14.63
2023-03-08T04:02:40.566Z,14.93
2023-03-08T04:05:10.571Z,12.90
2023-03-08T04:07:38.448Z,13.57
2023-03-08T04:10:06.882Z,14.15
2023-03-08T04:12:35.298Z,12.80
2023-03-08T04:15:02.934Z,13.48
2023-03-08T04:17:32.488Z,12.48
2023-03-08T04:19:59.359Z,12.88
2023-03-08T04:22:27.961Z,12.48
2023-03-08T04:25:03.476Z,14.13
2023-03-08T04:27:39.635Z,13.23
2023-03-08T04:30:07.585Z,13.68
2023-03-08T04:32:35.741Z,13.93
2023-03-08T04:35:03.034Z,14.00
2023-03-08T04:37:32.486Z,12.85
2023-03-08T04:40:09.447Z,12.70
2023-03-08T04:42:42.653Z,13.80
2023-03-08T04:45:11.758Z,13.90
2023-03-08T04:47:39.842Z,11.93
2023-03-08T04:50:08.221Z,13.95
2023-03-08T04:52:35.763Z,12.68
2023-03-08T04:55:05.292Z,13.00
2023-03-08T04:57:32.188Z,13.68
2023-03-08T05:00:00.589Z,15.10
2023-03-08T05:02:27.738Z,14.40
2023-03-08T05:04:54.611Z,15.30
2023-03-08T05:07:21.844Z,13.55
2023-03-08T05:09:50.745Z,14.23
2023-03-08T05:12:17.615Z,15.48
2023-03-08T05:14:49.594Z,14.68
2023-03-08T05:17:16.799Z,13.75
2023-03-08T05:19:44.815Z,15.18
2023-03-08T05:22:14.391Z,14.50
2023-03-08T05:24:48.338Z,15.60
2023-03-08T05:27:16.749Z,16.83
2023-03-08T05:29:44.837Z,16.60
2023-03-08T05:32:12.436Z,16.45
2023-03-08T05:34:40.329Z,17.92
2023-03-08T05:37:10.827Z,16.88
2023-03-08T05:39:39.826Z,17.67
2023-03-08T05:42:15.432Z,16.73
2023-03-08T05:44:44.571Z,17.48
2023-03-08T05:47:13.067Z,17.42
2023-03-08T05:49:40.393Z,16.60
2023-03-08T05:52:08.492Z,16.92
2023-03-08T05:54:35.818Z,17.17
2023-03-08T05:57:08.332Z,15.88
2023-03-08T05:59:36.255Z,16.70
2023-03-08T06:02:04.448Z,17.80
2023-03-08T06:04:38.988Z,17.52
2023-03-08T06:07:05.961Z,14.52
2023-03-08T06:09:37.981Z,13.48
2023-03-08T06:12:07.572Z,13.40
2023-03-08T06:14:34.565Z,13.85
2023-03-08T06:17:01.941Z,14.02
2023-03-08T06:19:32.465Z,14.40
2023-03-08T06:21:59.338Z,13.77
2023-03-08T06:24:27.588Z,16.20
2023-03-08T06:26:57.408Z,13.38
2023-03-08T06:29:24.274Z,14.00
2023-03-08T06:31:51.519Z,13.60
2023-03-08T06:34:19.201Z,11.75
2023-03-08T06:36:50.392Z,11.65
2023-03-08T06:39:17.743Z,13.02
2023-03-08T06:41:44.614Z,12.88
2023-03-08T06:44:13.387Z,13.57
2023-03-08T06:46:40.287Z,12.43
2023-03-08T06:49:07.867Z,14.50
2023-03-08T06:51:36.385Z,13.65
2023-03-08T06:54:03.418Z,13.63
2023-03-08T06:56:30.330Z,14.77
2023-03-08T06:58:57.263Z,12.90
2023-03-08T07:01:24.154Z,13.45
2023-03-08T07:03:52.591Z,12.27
2023-03-08T07:06:19.535Z,12.57
2023-03-08T07:08:46.358Z,11.43
2023-03-08T07:11:13.298Z,11.13
2023-03-08T07:13:40.290Z,10.60
2023-03-08T07:16:11.279Z,11.45
2023-03-08T07:18:38.236Z,10.50
2023-03-08T07:21:05.313Z,11.30
2023-03-08T07:23:32.238Z,8.73
2023-03-08T07:25:59.212Z,9.95
2023-03-08T07:28:26.032Z,9.73
2023-03-08T07:30:53.201Z,9.40
2023-03-08T07:33:20.476Z,6.53
2023-03-08T07:35:47.354Z,6.07
2023-03-08T07:38:14.439Z,7.28
2023-03-08T07:40:41.380Z,8.18
2023-03-08T07:43:08.320Z,8.50
2023-03-08T07:45:55.444Z,7.35
2023-03-08T07:48:22.316Z,5.45
2023-03-08T07:50:49.243Z,6.55
2023-03-08T07:53:16.139Z,7.13
2023-03-08T07:55:43.244Z,5.70
2023-03-08T07:58:10.071Z,6.82
2023-03-08T08:00:36.965Z,6.22
2023-03-08T08:03:03.957Z,6.15
2023-03-08T08:05:30.936Z,5.47
2023-03-08T08:07:57.892Z,5.28
2023-03-08T08:10:24.711Z,5.25
2023-03-08T08:12:51.585Z,6.13
2023-03-08T08:15:19.230Z,5.10
2023-03-08T08:17:46.156Z,5.70
2023-03-08T08:20:13.013Z,7.28
2023-03-08T08:22:39.862Z,7.00
2023-03-08T08:25:07.306Z,7.10
2023-03-08T08:27:34.581Z,6.32
2023-03-08T08:30:01.770Z,6.18
2023-03-08T08:32:29.079Z,6.35
2023-03-08T08:34:55.968Z,7.15
2023-03-08T08:37:23.037Z,5.95
2023-03-08T08:39:49.882Z,5.38
2023-03-08T08:42:17.250Z,7.13
2023-03-08T08:44:44.397Z,5.60
2023-03-08T08:47:11.448Z,4.70
2023-03-08T08:49:38.307Z,5.07
2023-03-08T08:52:05.433Z,4.63
2023-03-08T08:54:33.837Z,4.13
2023-03-08T08:57:00.815Z,4.70
2023-03-08T08:59:27.863Z,4.35
2023-03-08T09:01:54.768Z,3.58
2023-03-08T09:04:21.794Z,2.97
2023-03-08T09:06:48.769Z,2.80
2023-03-08T09:09:16.554Z,3.08
2023-03-08T09:11:54.075Z,2.50
2023-03-08T09:14:21.984Z,2.65
2023-03-08T09:16:49.656Z,2.45
2023-03-08T09:19:17.946Z,2.05
2023-03-08T09:21:44.968Z,2.55
2023-03-08T09:24:12.093Z,1.98
2023-03-08T09:26:39.135Z,2.10
2023-03-08T09:29:07.420Z,2.50
2023-03-08T09:31:35.737Z,2.08
2023-03-08T09:34:04.834Z,2.40
2023-03-08T09:36:31.674Z,2.00
2023-03-08T09:38:58.560Z,2.30
2023-03-08T09:41:44.371Z,2.80
2023-03-08T09:45:08.625Z,2.20
2023-03-08T09:47:42.187Z,2.03
2023-03-08T09:50:40.715Z,2.17
2023-03-08T09:53:11.063Z,1.90
2023-03-08T09:55:42.343Z,1.85
2023-03-08T09:58:33.474Z,2.30
2023-03-08T10:01:25.113Z,2.38
2023-03-08T10:04:10.527Z,3.25
2023-03-08T10:06:56.024Z,2.92
2023-03-08T10:09:40.422Z,2.67
2023-03-08T10:12:26.541Z,3.05
2023-03-08T10:15:02.853Z,2.78
2023-03-08T10:17:57.943Z,2.90
2023-03-08T10:20:43.064Z,2.75
2023-03-08T10:23:16.716Z,3.70
2023-03-08T10:25:43.884Z,2.90
2023-03-08T10:28:16.108Z,3.30
2023-03-08T10:30:58.700Z,3.42
2023-03-08T10:33:30.706Z,2.00
2023-03-08T10:36:22.128Z,2.13
2023-03-08T10:39:09.060Z,1.90
2023-03-08T10:41:45.306Z,2.38
2023-03-08T10:47:31.425Z,3.20
2023-03-08T10:50:22.131Z,3.03
2023-03-08T10:52:51.160Z,4.68
2023-03-08T10:55:18.279Z,2.97
2023-03-08T10:58:03.689Z,3.45
2023-03-08T11:00:32.147Z,3.90
2023-03-08T11:03:04.092Z,2.63
2023-03-08T11:05:30.973Z,2.90
2023-03-08T11:07:59.113Z,2.85
2023-03-08T11:10:27.471Z,2.90
2023-03-08T11:13:31.408Z,2.85
2023-03-08T11:16:23.209Z,2.50
2023-03-08T11:19:03.087Z,2.63
2023-03-08T11:21:35.965Z,2.63
2023-03-08T11:24:30.192Z,1.75
2023-03-08T11:27:20.258Z,2.20
2023-03-08T11:29:59.149Z,2.28
2023-03-08T11:32:31.886Z,2.13
2023-03-08T11:35:31.447Z,1.60
2023-03-08T11:38:30.466Z,2.30
2023-03-08T11:41:34.993Z,1.80
2023-03-08T11:44:15.727Z,1.70
2023-03-08T11:47:01.598Z,1.50
2023-03-08T11:49:44.015Z,1.50
2023-03-08T11:52:47.146Z,1.65
2023-03-08T11:55:20.761Z,1.35
2023-03-08T11:57:53.380Z,1.00
2023-03-08T12:00:33.886Z,0.60
2023-03-08T12:03:04.890Z,0.70
2023-03-08T12:05:36.787Z,0.80
2023-03-08T12:08:09.135Z,0.75
2023-03-08T12:10:49.954Z,0.50
2023-03-08T12:13:35.402Z,0.63
2023-03-08T12:16:14.788Z,0.40
2023-03-08T12:19:06.648Z,0.45
2023-03-08T12:21:40.348Z,0.50
2023-03-08T12:24:19.224Z,0.65
2023-03-08T12:26:52.681Z,1.70
2023-03-08T12:29:43.376Z,1.33
2023-03-08T12:32:11.259Z,0.50
2023-03-08T12:34:40.281Z,0.60
2023-03-08T12:37:24.939Z,0.50
2023-03-08T12:39:56.976Z,0.60
2023-03-08T12:42:40.363Z,0.57
2023-03-08T12:45:27.941Z,0.70
2023-03-08T12:48:08.727Z,0.50
2023-03-08T12:50:42.944Z,0.28
2023-03-08T12:53:38.045Z,1.20
2023-03-08T12:56:09.122Z,0.50
2023-03-08T12:58:56.168Z,0.40
2023-03-08T13:01:44.049Z,0.40
2023-03-08T13:04:41.042Z,0.63
2023-03-08T13:07:40.169Z,0.32
2023-03-08T13:10:24.520Z,0.70
2023-03-08T13:13:09.875Z,0.50
2023-03-08T13:15:40.093Z,0.45
2023-03-08T13:18:08.624Z,0.70
2023-03-08T13:20:57.357Z,0.30
2023-03-08T13:23:28.852Z,0.60
2023-03-08T13:26:02.210Z,1.10
2023-03-08T13:28:46.104Z,1.00
2023-03-08T13:31:18.592Z,0.85
2023-03-08T13:33:50.892Z,0.73
2023-03-08T13:36:22.684Z,1.13
2023-03-08T13:38:58.045Z,1.08
2023-03-08T13:41:35.059Z,1.25
2023-03-08T13:44:06.795Z,14.77
2023-03-08T13:46:35.615Z,9.20
2023-03-08T13:49:02.519Z,1.92
2023-03-08T13:51:29.410Z,2.08
2023-03-08T13:53:56.537Z,1.40
2023-03-08T13:56:26.019Z,1.55
2023-03-08T13:58:57.960Z,1.30
2023-03-08T14:01:25.824Z,1.77
2023-03-08T14:03:55.083Z,0.90
2023-03-08T14:06:23.772Z,0.65
2023-03-08T14:08:51.074Z,1.10
2023-03-08T14:11:26.975Z,0.50
2023-03-08T14:13:54.964Z,3.28
2023-03-08T14:16:26.152Z,1.35
2023-03-08T14:18:53.114Z,1.50
2023-03-08T14:21:22.139Z,1.70
2023-03-08T14:23:56.897Z,0.82
2023-03-08T14:26:36.998Z,0.70
2023-03-08T14:29:19.791Z,0.52
2023-03-08T14:31:59.928Z,0.60
2023-03-08T14:34:29.479Z,1.45
2023-03-08T14:37:05.397Z,0.93
2023-03-08T14:39:33.542Z,1.27
2023-03-08T14:42:22.855Z,0.50
2023-03-08T14:44:53.587Z,0.57
2023-03-08T14:47:24.246Z,0.50
2023-03-08T14:50:02.598Z,0.30
2023-03-08T14:52:30.968Z,0.93
2023-03-08T14:54:57.860Z,1.00
2023-03-08T14:57:26.210Z,0.43
2023-03-08T14:59:55.644Z,1.65
2023-03-08T15:02:22.589Z,1.20
2023-03-08T15:04:49.384Z,0.50
2023-03-08T15:07:23.356Z,0.85
2023-03-08T15:09:50.925Z,0.85
2023-03-08T15:12:18.383Z,0.50
2023-03-08T15:14:45.447Z,0.90
2023-03-08T15:17:12.297Z,1.20
2023-03-08T15:19:39.090Z,1.35
2023-03-08T15:22:06.265Z,1.48
2023-03-08T15:24:33.149Z,1.80
2023-03-08T15:27:00.003Z,1.52
2023-03-08T15:29:28.971Z,1.33
2023-03-08T15:31:55.936Z,1.30
2023-03-08T15:34:22.891Z,1.60
2023-03-08T15:36:50.325Z,1.05
2023-03-08T15:39:17.301Z,1.40
2023-03-08T15:41:44.152Z,0.77
2023-03-08T15:44:10.984Z,0.80
2023-03-08T15:46:38.234Z,0.68
2023-03-08T15:49:05.297Z,0.75
2023-03-08T15:51:34.289Z,0.80
2023-03-08T15:54:01.719Z,0.65
2023-03-08T15:56:28.596Z,0.90
2023-03-08T15:58:55.455Z,1.58
2023-03-08T16:01:24.267Z,0.80
2023-03-08T16:03:55.196Z,1.00
2023-03-08T16:06:22.632Z,0.70
2023-03-08T16:08:49.779Z,0.80
2023-03-08T16:11:18.352Z,0.82
2023-03-08T16:13:45.176Z,0.80
2023-03-08T16:16:12.122Z,0.90
2023-03-08T16:18:40.465Z,1.50
2023-03-08T16:21:08.918Z,1.10
2023-03-08T16:23:36.536Z,1.77
2023-03-08T16:26:15.190Z,6.80
2023-03-08T16:28:43.778Z,4.47
2023-03-08T16:31:10.688Z,10.63
2023-03-08T16:33:37.628Z,2.97
2023-03-08T16:36:04.845Z,8.23
2023-03-08T16:38:31.802Z,2.35
2023-03-08T16:41:12.333Z,2.03
2023-03-08T16:43:46.725Z,1.45
2023-03-08T16:46:15.674Z,2.00
2023-03-08T16:48:42.507Z,1.80
2023-03-08T16:51:14.541Z,1.60
2023-03-08T16:53:41.379Z,3.08
2023-03-08T16:56:08.246Z,2.05
2023-03-08T16:58:35.134Z,1.95
2023-03-08T17:01:01.989Z,1.85
2023-03-08T17:03:28.879Z,1.67
2023-03-08T17:05:55.688Z,1.50
2023-03-08T17:08:22.572Z,1.67
2023-03-08T17:10:49.824Z,1.90
2023-03-08T17:13:16.642Z,1.80
2023-03-08T17:15:44.780Z,2.00
2023-03-08T17:18:11.816Z,1.65
2023-03-08T17:20:40.006Z,1.80
2023-03-08T17:23:07.000Z,1.50
2023-03-08T17:25:35.615Z,1.50
2023-03-08T17:28:03.659Z,4.13
2023-03-08T17:30:30.891Z,3.10
2023-03-08T17:32:57.925Z,1.70
2023-03-08T17:35:25.761Z,1.25
2023-03-08T17:37:52.649Z,1.20
2023-03-08T17:40:19.756Z,2.35
2023-03-08T17:42:49.299Z,1.30
2023-03-08T17:45:16.361Z,1.60
2023-03-08T17:47:43.357Z,1.27
2023-03-08T17:50:11.396Z,1.33
2023-03-08T17:52:38.240Z,1.15
2023-03-08T17:55:05.459Z,1.45
2023-03-08T17:57:32.301Z,1.30
2023-03-08T17:59:59.184Z,1.30
2023-03-08T18:02:26.970Z,0.98
2023-03-08T18:04:55.998Z,1.05
2023-03-08T18:07:24.921Z,1.08
2023-03-08T18:09:51.755Z,1.58
2023-03-08T18:12:18.568Z,1.60
2023-03-08T18:14:47.283Z,1.15
2023-03-08T18:17:14.167Z,1.20
2023-03-08T18:19:41.982Z,1.10
2023-03-08T18:22:08.936Z,1.27
2023-03-08T18:24:35.842Z,1.45
2023-03-08T18:27:05.464Z,1.35
2023-03-08T18:29:33.777Z,1.40
2023-03-08T18:32:00.790Z,1.40
2023-03-08T18:34:27.888Z,1.33
2023-03-08T18:36:58.872Z,1.55
2023-03-08T18:39:25.876Z,1.35
2023-03-08T18:41:56.714Z,1.55
2023-03-08T18:44:26.770Z,1.45
2023-03-08T18:46:53.844Z,1.92
2023-03-08T18:49:20.764Z,1.77
2023-03-08T18:51:47.613Z,1.85
2023-03-08T18:54:17.416Z,1.55
2023-03-08T18:56:44.461Z,1.60
2023-03-08T18:59:12.502Z,1.63
2023-03-08T19:01:40.198Z,1.60
2023-03-08T19:04:08.063Z,1.40
2023-03-08T19:06:35.757Z,1.60
2023-03-08T19:09:13.119Z,1.45
2023-03-08T19:11:40.178Z,2.30
2023-03-08T19:14:07.288Z,2.20
2023-03-08T19:16:35.553Z,1.48
2023-03-08T19:19:07.860Z,1.52
2023-03-08T19:21:37.107Z,2.17
2023-03-08T19:24:04.861Z,1.73
2023-03-08T19:26:36.376Z,2.03
2023-03-08T19:29:09.444Z,1.90
2023-03-08T19:31:41.883Z,2.00
2023-03-08T19:34:08.857Z,1.77
2023-03-08T19:36:36.352Z,1.85
2023-03-08T19:39:04.635Z,1.83
2023-03-08T19:41:31.669Z,1.50
2023-03-08T19:43:59.041Z,1.63
2023-03-08T19:46:26.046Z,1.90
2023-03-08T19:48:53.132Z,1.60
2023-03-08T19:51:20.500Z,1.67
2023-03-08T19:53:47.418Z,1.60
2023-03-08T19:56:18.933Z,1.67
2023-03-08T19:58:46.107Z,1.58
2023-03-08T20:01:16.693Z,1.50
2023-03-08T20:03:43.841Z,1.67
2023-03-08T20:06:12.832Z,1.67
2023-03-08T20:08:40.542Z,1.58
2023-03-08T20:11:07.346Z,1.58
2023-03-08T20:13:34.246Z,1.90
2023-03-08T20:16:01.030Z,2.03
2023-03-08T20:18:29.209Z,1.63
2023-03-08T20:20:58.485Z,1.88
2023-03-08T20:23:25.857Z,2.17
2023-03-08T20:25:52.766Z,2.20
2023-03-08T20:28:19.593Z,1.65
2023-03-08T20:30:47.806Z,2.38
2023-03-08T20:33:15.139Z,2.00
2023-03-08T20:35:42.467Z,1.85
2023-03-08T20:38:09.453Z,2.10
2023-03-08T20:40:38.169Z,1.67
2023-03-08T20:43:10.925Z,1.80
2023-03-08T20:45:38.396Z,2.75
2023-03-08T20:48:05.378Z,2.40
2023-03-08T20:50:32.904Z,2.17
2023-03-08T20:52:59.788Z,2.40
2023-03-08T20:55:26.582Z,2.22
2023-03-08T20:57:56.473Z,2.05
2023-03-08T21:00:25.482Z,2.03
2023-03-08T21:02:52.613Z,1.73
2023-03-08T21:05:19.436Z,1.70
2023-03-08T21:07:46.260Z,2.28
2023-03-08T21:10:13.840Z,2.28
2023-03-08T21:12:40.854Z,1.90
2023-03-08T21:15:08.448Z,2.13
2023-03-08T21:17:37.964Z,1.92
2023-03-08T21:20:05.783Z,2.35
2023-03-08T21:22:33.068Z,2.22
2023-03-08T21:24:59.962Z,2.10
2023-03-08T21:27:26.821Z,2.00
2023-03-08T21:29:55.381Z,1.55
2023-03-08T21:32:22.274Z,2.10
2023-03-08T21:34:49.232Z,1.48
2023-03-08T21:37:16.145Z,1.70
2023-03-08T21:39:42.977Z,1.50
2023-03-08T21:42:09.870Z,1.65
2023-03-08T21:44:36.833Z,1.95
2023-03-08T21:47:03.967Z,1.48
2023-03-08T21:49:36.995Z,1.90
2023-03-08T21:52:04.049Z,1.58
2023-03-08T21:54:33.211Z,1.60
2023-03-08T21:57:00.288Z,1.70
2023-03-08T21:59:28.816Z,1.80
2023-03-08T22:01:58.408Z,1.40
2023-03-08T22:04:25.866Z,1.38
2023-03-08T22:06:52.903Z,1.02
2023-03-08T22:09:19.711Z,0.90
2023-03-08T22:11:48.815Z,1.30
2023-03-08T22:14:15.645Z,1.30
2023-03-08T22:16:42.631Z,1.10
2023-03-08T22:19:09.683Z,1.10
2023-03-08T22:21:36.595Z,0.80
2023-03-08T22:24:03.445Z,1.20
2023-03-08T22:26:30.552Z,0.88
2023-03-08T22:28:57.634Z,1.13
2023-03-08T22:31:25.967Z,1.00
2023-03-08T22:33:53.044Z,0.85
2023-03-08T22:36:20.479Z,1.00
2023-03-08T22:38:47.322Z,0.73
2023-03-08T22:41:16.506Z,0.93
2023-03-08T22:43:43.435Z,0.77
2023-03-08T22:46:13.130Z,0.80
2023-03-08T22:48:40.087Z,0.68
2023-03-08T22:51:11.081Z,0.70
2023-03-08T22:53:39.093Z,1.08
2023-03-08T22:56:06.723Z,1.08
2023-03-08T22:58:33.615Z,0.82
2023-03-08T23:01:00.494Z,0.77
2023-03-08T23:03:27.376Z,0.90
2023-03-08T23:05:54.212Z,1.08
2023-03-08T23:08:22.669Z,0.95
2023-03-08T23:10:51.045Z,0.80
2023-03-08T23:13:32.668Z,0.93
2023-03-08T23:16:00.083Z,0.65
2023-03-08T23:18:27.024Z,0.80
2023-03-08T23:20:53.896Z,0.70
2023-03-08T23:23:24.970Z,0.95
2023-03-08T23:25:52.193Z,0.60
2023-03-08T23:28:19.406Z,0.50
2023-03-08T23:30:46.203Z,1.05
2023-03-08T23:33:13.073Z,0.50
2023-03-08T23:35:39.968Z,0.63
2023-03-08T23:38:06.902Z,0.47
2023-03-08T23:40:33.689Z,0.60
2023-03-08T23:43:00.505Z,0.70
2023-03-08T23:45:27.334Z,0.80
2023-03-08T23:47:54.139Z,0.70
2023-03-08T23:50:20.921Z,0.68
2023-03-08T23:52:47.726Z,0.60
2023-03-08T23:55:14.580Z,1.10
2023-03-08T23:57:41.397Z,0.63
